createdAt,value
2019-02-15T00:00:41.487Z,10.40
2019-02-15T00:03:10.672Z,13.93
2019-02-15T00:05:39.849Z,10.27
2019-02-15T00:08:09.005Z,11.07
2019-02-15T00:10:38.380Z,15.53
2019-02-15T00:13:13.231Z,14.43
2019-02-15T00:15:38.616Z,13.10
2019-02-15T00:18:12.309Z,14.10
2019-02-15T00:20:49.389Z,11.13
2019-02-15T00:23:18.791Z,10.40
2019-02-15T00:25:47.990Z,9.43
2019-02-15T00:28:17.352Z,11.93
2019-02-15T00:30:46.787Z,11.57
2019-02-15T00:33:16.175Z,12.23
2019-02-15T00:35:45.612Z,16.20
2019-02-15T00:38:15.026Z,11.50
2019-02-15T00:40:44.423Z,13.87
2019-02-15T00:43:21.937Z,11.93
2019-02-15T00:46:00.845Z,12.03
2019-02-15T00:48:30.556Z,14.97
2019-02-15T00:51:04.634Z,9.77
2019-02-15T00:53:41.412Z,17.57
2019-02-15T00:56:14.699Z,15.27
2019-02-15T00:58:54.678Z,13.43
2019-02-15T01:01:31.720Z,8.70
2019-02-15T01:04:04.993Z,11.03
2019-02-15T01:06:44.941Z,12.87
2019-02-15T01:09:22.003Z,9.57
2019-02-15T01:11:58.957Z,8.70
2019-02-15T01:14:28.346Z,11.27
2019-02-15T01:16:57.545Z,9.87
2019-02-15T01:19:26.737Z,11.80
2019-02-15T01:21:55.968Z,10.50
2019-02-15T01:24:25.386Z,15.27
2019-02-15T01:26:56.474Z,12.47
2019-02-15T01:29:35.950Z,8.53
2019-02-15T01:32:09.459Z,12.03
2019-02-15T01:34:40.260Z,10.57
2019-02-15T01:37:19.737Z,12.37
2019-02-15T01:39:50.850Z,11.67
2019-02-15T01:42:36.621Z,12.10
2019-02-15T01:45:26.704Z,9.10
2019-02-15T01:47:55.932Z,10.67
2019-02-15T01:50:25.289Z,13.47
2019-02-15T01:52:54.678Z,8.93
2019-02-15T01:55:24.065Z,11.20
2019-02-15T01:57:53.266Z,12.40
2019-02-15T02:00:24.110Z,10.53
2019-02-15T02:02:53.500Z,11.93
2019-02-15T02:05:22.711Z,9.27
2019-02-15T02:07:52.123Z,12.17
2019-02-15T02:10:21.654Z,10.33
2019-02-15T02:12:50.851Z,10.30
2019-02-15T02:15:20.069Z,12.87
2019-02-15T02:17:49.423Z,9.50
2019-02-15T02:20:18.591Z,9.53
2019-02-15T02:22:47.985Z,11.67
2019-02-15T02:25:17.478Z,10.70
2019-02-15T02:27:46.610Z,10.40
2019-02-15T02:30:16.051Z,13.13
2019-02-15T02:32:45.216Z,12.83
2019-02-15T02:35:14.600Z,12.37
2019-02-15T02:37:43.982Z,11.67
2019-02-15T02:40:13.281Z,14.03
2019-02-15T02:42:42.678Z,17.37
2019-02-15T02:45:11.897Z,15.57
2019-02-15T02:47:41.036Z,16.43
2019-02-15T02:50:10.166Z,18.47
2019-02-15T02:52:39.366Z,15.10
2019-02-15T02:55:08.731Z,16.57
2019-02-15T02:57:38.108Z,16.83
2019-02-15T03:00:07.689Z,15.47
2019-02-15T03:02:37.070Z,14.87
2019-02-15T03:05:06.690Z,11.87
2019-02-15T03:07:35.827Z,13.10
2019-02-15T03:10:06.503Z,11.80
2019-02-15T03:12:35.623Z,10.67
2019-02-15T03:15:06.141Z,12.10
2019-02-15T03:17:35.311Z,12.33
2019-02-15T03:20:06.116Z,12.30
2019-02-15T03:22:35.550Z,13.33
2019-02-15T03:25:05.537Z,15.07
2019-02-15T03:27:34.705Z,17.87
2019-02-15T03:30:05.266Z,14.73
2019-02-15T03:32:34.407Z,13.87
2019-02-15T03:35:04.684Z,13.63
2019-02-15T03:37:53.586Z,10.50
2019-02-15T03:40:24.459Z,14.67
2019-02-15T03:42:53.611Z,12.40
2019-02-15T03:45:22.937Z,14.03
2019-02-15T03:47:52.087Z,14.87
2019-02-15T03:50:21.517Z,13.47
2019-02-15T03:52:50.655Z,14.87
2019-02-15T03:55:20.112Z,15.93
2019-02-15T03:57:49.519Z,10.67
2019-02-15T04:00:18.755Z,13.97
2019-02-15T04:02:48.101Z,12.33
2019-02-15T04:05:17.291Z,8.43
2019-02-15T04:07:46.657Z,14.30
2019-02-15T04:10:16.170Z,11.13
2019-02-15T04:12:45.316Z,12.77
2019-02-15T04:15:14.725Z,9.10
2019-02-15T04:17:43.893Z,12.10
2019-02-15T04:20:13.160Z,11.67
2019-02-15T04:22:42.287Z,10.53
2019-02-15T04:25:11.453Z,11.63
2019-02-15T04:27:40.855Z,10.20
2019-02-15T04:30:11.275Z,9.37
2019-02-15T04:32:40.623Z,8.43
2019-02-15T04:35:09.957Z,9.23
2019-02-15T04:37:39.102Z,12.65
2019-02-15T04:40:10.275Z,9.77
2019-02-15T04:42:39.599Z,13.07
2019-02-15T04:45:09.591Z,9.97
2019-02-15T04:47:38.966Z,10.67
2019-02-15T04:50:09.122Z,11.70
2019-02-15T04:52:38.241Z,10.63
2019-02-15T04:55:07.518Z,9.30
2019-02-15T04:57:37.026Z,10.47
2019-02-15T05:00:08.121Z,11.23
2019-02-15T05:02:37.522Z,12.53
2019-02-15T05:05:07.707Z,12.17
2019-02-15T05:07:37.116Z,8.97
2019-02-15T05:10:06.326Z,11.17
2019-02-15T05:12:35.631Z,10.53
2019-02-15T05:15:06.177Z,12.17
2019-02-15T05:17:35.605Z,10.50
2019-02-15T05:20:06.580Z,11.53
2019-02-15T05:22:35.820Z,9.70
2019-02-15T05:25:05.428Z,11.70
2019-02-15T05:27:34.583Z,9.93
2019-02-15T05:30:04.840Z,11.00
2019-02-15T05:32:34.221Z,9.20
2019-02-15T05:35:03.745Z,10.32
2019-02-15T05:37:32.917Z,9.90
2019-02-15T05:40:02.404Z,8.53
2019-02-15T05:42:31.544Z,12.33
2019-02-15T05:45:03.919Z,9.77
2019-02-15T05:47:31.486Z,11.10
2019-02-15T05:50:00.680Z,11.53
2019-02-15T05:52:29.895Z,9.85
2019-02-15T05:54:59.270Z,11.73
2019-02-15T05:57:28.705Z,10.85
2019-02-15T05:59:58.220Z,9.53
2019-02-15T06:02:27.422Z,9.28
2019-02-15T06:04:57.153Z,10.25
2019-02-15T06:07:28.341Z,9.78
2019-02-15T06:09:57.517Z,14.33
2019-02-15T06:12:26.661Z,9.33
2019-02-15T06:14:55.803Z,10.28
2019-02-15T06:17:25.219Z,12.30
2019-02-15T06:19:54.350Z,9.63
2019-02-15T06:22:23.770Z,12.77
2019-02-15T06:24:53.171Z,9.57
2019-02-15T06:27:22.341Z,10.10
2019-02-15T06:29:51.494Z,15.33
2019-02-15T06:32:21.199Z,10.90
2019-02-15T06:34:50.362Z,11.30
2019-02-15T06:37:19.761Z,9.23
2019-02-15T06:39:49.151Z,12.40
2019-02-15T06:42:18.307Z,11.07
2019-02-15T06:44:47.461Z,11.30
2019-02-15T06:47:16.654Z,12.43
2019-02-15T06:49:45.815Z,12.97
2019-02-15T06:52:14.997Z,10.93
2019-02-15T06:54:44.134Z,11.83
2019-02-15T06:57:13.522Z,9.67
2019-02-15T06:59:47.382Z,15.07
2019-02-15T07:02:18.476Z,12.13
2019-02-15T07:05:05.608Z,10.93
2019-02-15T07:07:35.165Z,11.67
2019-02-15T07:10:06.167Z,9.57
2019-02-15T07:12:35.328Z,11.33
2019-02-15T07:15:05.899Z,11.33
2019-02-15T07:17:35.046Z,10.37
2019-02-15T07:20:06.220Z,11.37
2019-02-15T07:22:35.361Z,9.67
2019-02-15T07:25:06.491Z,15.20
2019-02-15T07:27:35.665Z,11.80
2019-02-15T07:30:07.783Z,11.47
2019-02-15T07:32:37.179Z,11.23
2019-02-15T07:35:07.778Z,13.27
2019-02-15T07:37:37.180Z,9.93
2019-02-15T07:40:08.191Z,9.90
2019-02-15T07:42:37.368Z,12.80
2019-02-15T07:45:10.409Z,9.93
2019-02-15T07:47:39.545Z,11.00
2019-02-15T07:50:13.462Z,10.70
2019-02-15T07:52:42.623Z,13.90
2019-02-15T07:55:11.812Z,11.40
2019-02-15T07:57:40.966Z,9.83
2019-02-15T08:00:12.598Z,10.77
2019-02-15T08:02:42.121Z,15.40
2019-02-15T08:05:11.935Z,11.00
2019-02-15T08:07:41.345Z,8.43
2019-02-15T08:10:11.407Z,10.13
2019-02-15T08:12:40.552Z,12.23
2019-02-15T08:15:10.654Z,15.93
2019-02-15T08:17:39.836Z,12.27
2019-02-15T08:20:12.432Z,10.57
2019-02-15T08:22:41.613Z,9.23
2019-02-15T08:25:10.872Z,13.23
2019-02-15T08:27:40.220Z,7.93
2019-02-15T08:30:11.105Z,9.53
2019-02-15T08:32:40.546Z,11.23
2019-02-15T08:35:11.293Z,9.17
2019-02-15T08:37:40.676Z,11.10
2019-02-15T08:40:11.634Z,9.93
2019-02-15T08:42:40.798Z,8.40
2019-02-15T08:45:12.210Z,9.57
2019-02-15T08:47:41.540Z,11.13
2019-02-15T08:50:12.426Z,9.43
2019-02-15T08:52:41.888Z,11.50
2019-02-15T08:55:12.200Z,8.70
2019-02-15T08:57:41.345Z,13.77
2019-02-15T09:00:13.197Z,10.90
2019-02-15T09:02:42.387Z,8.27
2019-02-15T09:05:12.612Z,10.20
2019-02-15T09:07:41.709Z,9.40
2019-02-15T09:10:14.652Z,10.23
2019-02-15T09:12:43.813Z,11.50
2019-02-15T09:15:24.222Z,8.57
2019-02-15T09:17:53.360Z,7.67
2019-02-15T09:20:22.775Z,10.80
2019-02-15T09:22:51.927Z,9.50
2019-02-15T09:25:21.154Z,8.70
2019-02-15T09:28:07.955Z,13.87
2019-02-15T09:30:37.195Z,11.23
2019-02-15T09:33:06.487Z,12.03
2019-02-15T09:35:35.890Z,11.43
2019-02-15T09:38:05.258Z,11.27
2019-02-15T09:40:34.405Z,12.90
2019-02-15T09:43:03.797Z,12.37
2019-02-15T09:45:33.229Z,16.03
2019-02-15T09:48:02.415Z,11.57
2019-02-15T09:50:31.814Z,13.43
2019-02-15T09:53:01.197Z,10.17
2019-02-15T09:55:30.454Z,12.60
2019-02-15T09:57:59.922Z,9.60
2019-02-15T10:00:29.075Z,10.77
2019-02-15T10:02:58.511Z,10.63
2019-02-15T10:05:27.680Z,10.20
2019-02-15T10:07:56.801Z,12.57
2019-02-15T10:10:25.996Z,9.50
2019-02-15T10:12:55.123Z,12.17
2019-02-15T10:15:24.630Z,10.70
2019-02-15T10:17:53.941Z,10.57
2019-02-15T10:20:23.084Z,10.33
2019-02-15T10:22:52.165Z,9.27
2019-02-15T10:25:21.437Z,8.03
2019-02-15T10:27:50.806Z,8.50
2019-02-15T10:30:20.220Z,9.30
2019-02-15T10:32:49.573Z,8.90
2019-02-15T10:35:18.983Z,11.10
2019-02-15T10:37:48.519Z,10.67
2019-02-15T10:40:17.716Z,10.10
2019-02-15T10:42:47.139Z,8.00
2019-02-15T10:45:17.176Z,6.83
2019-02-15T10:47:46.620Z,8.93
2019-02-15T10:50:15.963Z,7.10
2019-02-15T10:52:45.382Z,12.53
2019-02-15T10:55:14.543Z,8.57
2019-02-15T10:57:43.935Z,10.57
2019-02-15T11:00:18.119Z,12.77
2019-02-15T11:02:47.638Z,6.57
2019-02-15T11:05:17.970Z,8.80
2019-02-15T11:07:47.172Z,8.23
2019-02-15T11:10:16.316Z,9.13
2019-02-15T11:12:45.448Z,9.43
2019-02-15T11:15:16.465Z,6.97
2019-02-15T11:17:46.062Z,6.73
2019-02-15T11:20:18.933Z,6.17
2019-02-15T11:22:48.408Z,13.10
2019-02-15T11:25:17.825Z,7.53
2019-02-15T11:27:47.199Z,7.93
2019-02-15T11:30:17.434Z,6.63
2019-02-15T11:32:46.584Z,8.77
2019-02-15T11:35:16.131Z,8.37
2019-02-15T11:37:45.562Z,8.60
2019-02-15T11:40:15.251Z,6.80
2019-02-15T11:42:44.756Z,9.90
2019-02-15T11:45:14.498Z,8.90
2019-02-15T11:47:44.023Z,8.30
2019-02-15T11:50:14.021Z,5.80
2019-02-15T11:52:43.589Z,5.77
2019-02-15T11:55:13.080Z,5.87
2019-02-15T11:57:42.584Z,6.13
2019-02-15T12:00:21.196Z,5.87
2019-02-15T12:02:49.642Z,6.60
2019-02-15T12:05:19.043Z,9.83
2019-02-15T12:07:48.712Z,10.03
2019-02-15T12:10:17.838Z,7.97
2019-02-15T12:12:47.222Z,8.23
2019-02-15T12:15:16.737Z,7.47
2019-02-15T12:17:45.939Z,8.27
2019-02-15T12:20:15.468Z,5.00
2019-02-15T12:22:44.855Z,6.73
2019-02-15T12:25:14.023Z,5.73
2019-02-15T12:27:43.519Z,9.50
2019-02-15T12:30:14.821Z,6.73
2019-02-15T12:32:44.004Z,6.47
2019-02-15T12:35:13.587Z,10.80
2019-02-15T12:37:43.002Z,8.63
2019-02-15T12:40:12.690Z,5.53
2019-02-15T12:42:41.848Z,6.20
2019-02-15T12:45:15.504Z,6.60
2019-02-15T12:47:44.897Z,8.73
2019-02-15T12:50:18.242Z,6.33
2019-02-15T12:52:47.629Z,6.57
2019-02-15T12:55:16.799Z,7.10
2019-02-15T12:57:46.210Z,8.53
2019-02-15T13:00:18.803Z,8.60
2019-02-15T13:02:48.237Z,6.00
2019-02-15T13:05:17.618Z,4.07
2019-02-15T13:07:46.977Z,4.73
2019-02-15T13:10:29.740Z,6.27
2019-02-15T13:12:58.914Z,4.03
2019-02-15T13:15:28.357Z,4.37
2019-02-15T13:17:57.823Z,6.17
2019-02-15T13:20:26.945Z,5.60
2019-02-15T13:22:56.119Z,6.50
2019-02-15T13:25:25.319Z,6.13
2019-02-15T13:27:54.744Z,3.70
2019-02-15T13:30:24.173Z,6.23
2019-02-15T13:32:53.393Z,6.90
2019-02-15T13:35:26.018Z,4.00
2019-02-15T13:37:55.447Z,6.17
2019-02-15T13:40:24.912Z,6.90
2019-02-15T13:42:54.315Z,3.57
2019-02-15T13:45:23.563Z,4.67
2019-02-15T13:47:52.971Z,3.87
2019-02-15T13:50:22.146Z,3.03
2019-02-15T13:52:51.501Z,5.57
2019-02-15T13:55:20.878Z,6.53
2019-02-15T13:57:50.010Z,5.97
2019-02-15T14:00:19.389Z,3.20
2019-02-15T14:02:48.799Z,3.17
2019-02-15T14:05:17.960Z,2.50
2019-02-15T14:07:47.354Z,3.17
2019-02-15T14:10:16.758Z,7.27
2019-02-15T14:12:45.922Z,3.67
2019-02-15T14:15:15.407Z,2.90
2019-02-15T14:17:48.252Z,2.30
2019-02-15T14:20:16.004Z,2.77
2019-02-15T14:22:45.403Z,3.67
2019-02-15T14:25:14.665Z,2.53
2019-02-15T14:27:44.057Z,3.60
2019-02-15T14:30:14.702Z,1.93
2019-02-15T14:32:44.138Z,8.50
2019-02-15T14:35:14.810Z,2.50
2019-02-15T14:37:44.187Z,3.83
2019-02-15T14:40:14.653Z,2.00
2019-02-15T14:42:43.889Z,1.50
2019-02-15T14:45:14.120Z,2.03
2019-02-15T14:47:43.340Z,4.00
2019-02-15T14:50:12.496Z,4.70
2019-02-15T14:52:41.853Z,4.80
2019-02-15T14:55:11.706Z,3.27
2019-02-15T14:57:41.094Z,3.90
2019-02-15T15:00:14.693Z,4.13
2019-02-15T15:02:44.080Z,3.50
2019-02-15T15:05:15.946Z,5.27
2019-02-15T15:07:45.316Z,5.77
2019-02-15T15:10:14.495Z,3.70
2019-02-15T15:12:44.077Z,2.53
2019-02-15T15:15:15.284Z,3.83
2019-02-15T15:17:44.674Z,4.13
2019-02-15T15:20:14.146Z,3.30
2019-02-15T15:22:43.552Z,3.33
2019-02-15T15:25:16.287Z,4.80
2019-02-15T15:27:45.691Z,3.90
2019-02-15T15:30:16.988Z,3.37
2019-02-15T15:32:46.120Z,4.63
2019-02-15T15:35:15.548Z,5.13
2019-02-15T15:37:44.986Z,2.53
2019-02-15T15:40:15.168Z,6.53
2019-02-15T15:42:44.274Z,3.03
2019-02-15T15:45:13.913Z,3.27
2019-02-15T15:47:43.081Z,3.77
2019-02-15T15:50:12.593Z,2.70
2019-02-15T15:52:42.071Z,3.90
2019-02-15T15:55:13.746Z,5.40
2019-02-15T15:57:43.121Z,5.53
2019-02-15T16:00:14.936Z,4.40
2019-02-15T16:02:44.390Z,3.53
2019-02-15T16:05:13.957Z,8.83
2019-02-15T16:07:43.884Z,6.13
2019-02-15T16:10:14.998Z,11.37
2019-02-15T16:12:44.414Z,15.03
2019-02-15T16:15:14.134Z,17.87
2019-02-15T16:17:43.271Z,16.37
2019-02-15T16:20:13.288Z,9.13
2019-02-15T16:22:42.495Z,5.27
2019-02-15T16:25:12.152Z,7.77
2019-02-15T16:27:43.417Z,6.63
2019-02-15T16:30:15.092Z,5.67
2019-02-15T16:32:44.442Z,6.47
2019-02-15T16:35:13.555Z,7.87
2019-02-15T16:37:42.889Z,7.87
2019-02-15T16:40:16.027Z,9.00
2019-02-15T16:42:45.348Z,12.33
2019-02-15T16:45:15.331Z,19.17
2019-02-15T16:47:44.410Z,15.03
2019-02-15T16:50:14.201Z,12.43
2019-02-15T16:52:43.287Z,10.43
2019-02-15T16:55:13.544Z,9.40
2019-02-15T16:57:42.689Z,6.60
2019-02-15T17:00:13.042Z,6.90
2019-02-15T17:02:42.109Z,11.27
2019-02-15T17:05:11.691Z,12.07
2019-02-15T17:07:41.096Z,8.40
2019-02-15T17:10:10.980Z,8.83
2019-02-15T17:12:40.198Z,14.97
2019-02-15T17:15:13.229Z,11.20
2019-02-15T17:17:42.413Z,11.90
2019-02-15T17:20:11.819Z,7.50
2019-02-15T17:22:41.176Z,12.00
2019-02-15T17:25:11.492Z,12.67
2019-02-15T17:27:40.610Z,11.67
2019-02-15T17:30:11.976Z,12.67
2019-02-15T17:32:41.311Z,20.13
2019-02-15T17:35:11.841Z,7.77
2019-02-15T17:37:40.908Z,8.13
2019-02-15T17:40:13.286Z,7.30
2019-02-15T17:42:42.606Z,12.17
2019-02-15T17:45:12.441Z,8.73
2019-02-15T17:47:41.802Z,8.37
2019-02-15T17:50:12.327Z,12.87
2019-02-15T17:52:41.927Z,12.53
2019-02-15T17:55:12.286Z,12.30
2019-02-15T17:57:41.365Z,12.30
2019-02-15T18:00:16.044Z,12.00
2019-02-15T18:02:45.378Z,8.93
2019-02-15T18:05:17.483Z,9.43
2019-02-15T18:07:51.794Z,8.67
2019-02-15T18:10:21.149Z,12.00
2019-02-15T18:12:50.479Z,7.53
2019-02-15T18:15:19.548Z,8.30
2019-02-15T18:17:48.914Z,12.77
2019-02-15T18:20:19.620Z,12.23
2019-02-15T18:22:48.970Z,11.50
2019-02-15T18:25:18.523Z,17.23
2019-02-15T18:27:47.679Z,11.57
2019-02-15T18:30:17.633Z,14.70
2019-02-15T18:32:46.945Z,13.20
2019-02-15T18:35:17.034Z,15.67
2019-02-15T18:37:46.165Z,15.83
2019-02-15T18:40:15.498Z,14.80
2019-02-15T18:42:44.899Z,12.27
2019-02-15T18:45:16.159Z,16.03
2019-02-15T18:47:45.258Z,15.43
2019-02-15T18:50:14.420Z,14.60
2019-02-15T18:52:43.755Z,11.60
2019-02-15T18:55:13.027Z,12.57
2019-02-15T18:57:42.404Z,9.27
2019-02-15T19:00:16.775Z,11.93
2019-02-15T19:02:49.037Z,13.50
2019-02-15T19:05:18.142Z,11.33
2019-02-15T19:07:47.490Z,12.30
2019-02-15T19:10:18.969Z,10.87
2019-02-15T19:12:48.074Z,13.20
2019-02-15T19:15:17.325Z,16.77
2019-02-15T19:17:46.710Z,13.67
2019-02-15T19:20:17.248Z,15.47
2019-02-15T19:22:46.663Z,11.80
2019-02-15T19:25:18.723Z,13.80
2019-02-15T19:27:48.072Z,11.23
2019-02-15T19:30:26.210Z,10.30
2019-02-15T19:32:55.601Z,17.03
2019-02-15T19:35:24.709Z,19.07
2019-02-15T19:37:54.415Z,16.83
2019-02-15T19:40:23.526Z,18.70
2019-02-15T19:43:00.834Z,15.90
2019-02-15T19:45:30.199Z,10.90
2019-02-15T19:47:59.578Z,14.90
2019-02-15T19:50:28.940Z,13.70
2019-02-15T19:52:58.061Z,16.77
2019-02-15T19:55:27.411Z,12.00
2019-02-15T19:57:56.518Z,13.70
2019-02-15T20:00:25.607Z,21.50
2019-02-15T20:02:54.972Z,19.13
2019-02-15T20:05:24.181Z,15.63
2019-02-15T20:07:53.550Z,16.57
2019-02-15T20:10:23.382Z,15.60
2019-02-15T20:12:52.504Z,17.17
2019-02-15T20:15:21.571Z,19.13
2019-02-15T20:17:50.915Z,21.50
2019-02-15T20:20:19.992Z,16.47
2019-02-15T20:22:49.360Z,18.70
2019-02-15T20:25:18.445Z,16.40
2019-02-15T20:27:47.793Z,20.07
2019-02-15T20:30:21.516Z,21.70
2019-02-15T20:32:50.586Z,21.03
2019-02-15T20:35:19.849Z,25.57
2019-02-15T20:37:49.026Z,24.07
2019-02-15T20:40:18.501Z,24.87
2019-02-15T20:42:47.673Z,28.40
2019-02-15T20:45:22.522Z,22.63
2019-02-15T20:47:51.635Z,22.37
2019-02-15T20:50:21.170Z,27.57
2019-02-15T20:52:50.542Z,26.63
2019-02-15T20:55:20.839Z,25.77
2019-02-15T20:57:50.023Z,23.77
2019-02-15T21:00:24.465Z,24.63
2019-02-15T21:02:53.808Z,28.07
2019-02-15T21:05:22.945Z,27.23
2019-02-15T21:07:52.347Z,27.57
2019-02-15T21:10:21.481Z,27.67
2019-02-15T21:12:50.877Z,30.13
2019-02-15T21:15:20.351Z,22.87
2019-02-15T21:17:49.433Z,26.67
2019-02-15T21:20:18.585Z,28.37
2019-02-15T21:22:47.661Z,26.00
2019-02-15T21:25:17.437Z,26.47
2019-02-15T21:27:46.560Z,29.97
2019-02-15T21:30:17.927Z,28.70
2019-02-15T21:32:47.302Z,28.70
2019-02-15T21:35:16.404Z,22.47
2019-02-15T21:37:45.788Z,21.43
2019-02-15T21:40:18.329Z,23.30
2019-02-15T21:42:47.413Z,21.13
2019-02-15T21:45:16.807Z,19.20
2019-02-15T21:47:45.921Z,22.60
2019-02-15T21:50:17.536Z,23.77
2019-02-15T21:52:46.403Z,21.83
2019-02-15T21:55:16.815Z,21.67
2019-02-15T21:57:46.154Z,22.60
2019-02-15T22:00:22.335Z,18.70
2019-02-15T22:02:51.684Z,20.80
2019-02-15T22:05:20.818Z,22.97
2019-02-15T22:07:49.901Z,22.40
2019-02-15T22:10:19.017Z,21.57
2019-02-15T22:12:48.365Z,20.10
2019-02-15T22:15:17.969Z,20.87
2019-02-15T22:17:47.078Z,26.67
2019-02-15T22:20:26.406Z,19.20
2019-02-15T22:22:49.613Z,17.77
2019-02-15T22:25:18.733Z,21.80
2019-02-15T22:27:47.855Z,15.63
2019-02-15T22:30:18.325Z,20.57
2019-02-15T22:32:47.414Z,15.53
2019-02-15T22:35:16.781Z,16.80
2019-02-15T22:37:46.117Z,15.40
2019-02-15T22:40:30.105Z,19.23
2019-02-15T22:43:02.365Z,16.13
2019-02-15T22:45:31.525Z,17.67
2019-02-15T22:48:00.872Z,16.13
2019-02-15T22:50:36.037Z,16.53
2019-02-15T22:53:00.750Z,19.00
2019-02-15T22:55:30.155Z,15.30
2019-02-15T22:57:59.241Z,17.93
2019-02-15T23:00:49.545Z,18.47
2019-02-15T23:03:22.118Z,16.73
2019-02-15T23:05:51.234Z,18.90
2019-02-15T23:08:20.350Z,16.70
2019-02-15T23:10:49.692Z,16.47
2019-02-15T23:13:19.034Z,17.17
2019-02-15T23:15:48.157Z,13.50
2019-02-15T23:18:19.067Z,15.73
2019-02-15T23:20:48.260Z,13.97
2019-02-15T23:23:17.632Z,12.60
2019-02-15T23:25:46.716Z,12.23
2019-02-15T23:28:16.075Z,11.57
2019-02-15T23:30:45.409Z,14.13
2019-02-15T23:33:14.564Z,16.13
2019-02-15T23:35:43.874Z,13.77
2019-02-15T23:38:12.968Z,15.40
2019-02-15T23:40:42.346Z,13.10
2019-02-15T23:43:11.449Z,14.73
2019-02-15T23:45:40.529Z,12.57
2019-02-15T23:48:09.685Z,10.83
2019-02-15T23:50:38.801Z,13.03
2019-02-15T23:53:07.905Z,13.83
2019-02-15T23:55:37.023Z,9.60
2019-02-15T23:58:06.401Z,15.13
